Impacts TAF Board INFO
FOR SITUATIONAL AWARENESS. NOT TO BE USED FOR FLIGHT PLANNING PURPOSES.
IDs:

KCLT - Charlotte/Douglas In, NC, US

Issued at 1725 UTC 23 Jun 2018
Updated at 1933 UTC 23 Jun 2018
Potential Impact None Slight Moderate High
Time1852Z 23/20Z 23/21Z 23/22Z 23/23Z 24/00Z 24/01Z 24/02Z 24/03Z 24/04Z 24/05Z 24/06Z 24/07Z 24/08Z>>
Type OBS PRVL PRVL PRVL PRVL PRVL PRVL PRVL PRVL PRVL PRVL PRVL PRVL PRVL
VIS 10 >6 >6 >6 >6 >6 >6 >6 >6 >6 >6 >6 >6 >6
CIG 250 -- -- -- -- -- -- -- -- -- -- -- -- --
Cover BKN FEW FEW FEW FEW FEW SCT SCT SCT SCT SCT SCT SCT SCT
FltCat VFR VFR VFR VFR VFR VFR VFR VFR VFR VFR VFR VFR VFR VFR
WX -- -- -- -- -- -- -- -- -- -- -- -- -- --
WDir 230 230 230 230 230 230 240 240 240 240 240 240 240 240
WSpd 10 10 10 10 10 10 6 6 6 6 6 6 6 6
WGst -- 20 20 20 20 20 -- -- -- -- -- -- -- --

Raw TAF
KCLT 231725Z 2318/2424 23009KT P6SM SCT030
  FM231900 23010G20KT P6SM FEW050
  FM240100 24006KT P6SM SCT250
  FM242000 26007KT P6SM SCT050
  PROB30 2423/2424 4SM -TSRA BKN025CB


Raw METAR
KCLT 231852Z 23010KT 10SM SCT045 SCT070 BKN250 32/20 A2990 RMK AO2 SLP113 TCU DSNT NW-N T03170200 $
KCLT 231752Z 24007KT 10SM SCT034 30/21 A2990 RMK AO2 SLP116 TCU DSNT N T03000206 10306 20228 58001 $
KCLT 231711Z 23009KT 10SM SCT029 29/21 A2991 RMK AO2 T02940211 $
KCLT 231652Z 23009KT 10SM BKN028 29/22 A2990 RMK AO2 SLP116 T02940217 $

METAR Board
Radar Display
Forecast Discussion

FOR SITUATIONAL AWARENESS. NOT TO BE USED FOR FLIGHT PLANNING PURPOSES.